sensor_id;sensor_type;location;lat;lon;timestamp;P1;durP1;ratioP1;P2;durP2;ratioP2
4971;SDS011;2501;51.214;6.768;2023-02-28T00:01:31;3.65;;;3.30;;
4971;SDS011;2501;51.214;6.768;2023-02-28T00:04:02;5.20;;;4.00;;
4971;SDS011;2501;51.214;6.768;2023-02-28T00:06:30;9.25;;;4.30;;
4971;SDS011;2501;51.214;6.768;2023-02-28T00:08:59;7.43;;;3.80;;
4971;SDS011;2501;51.214;6.768;2023-02-28T00:11:27;10.20;;;4.40;;
4971;SDS011;2501;51.214;6.768;2023-02-28T00:13:55;6.33;;;4.57;;
4971;SDS011;2501;51.214;6.768;2023-02-28T00:16:24;8.57;;;3.75;;
4971;SDS011;2501;51.214;6.768;2023-02-28T00:18:55;4.70;;;3.60;;
4971;SDS011;2501;51.214;6.768;2023-02-28T00:21:23;6.20;;;3.60;;
4971;SDS011;2501;51.214;6.768;2023-02-28T00:23:52;6.47;;;3.80;;
4971;SDS011;2501;51.214;6.768;2023-02-28T00:26:20;5.60;;;3.70;;
4971;SDS011;2501;51.214;6.768;2023-02-28T00:28:49;8.32;;;4.00;;
4971;SDS011;2501;51.214;6.768;2023-02-28T00:31:19;5.90;;;3.30;;
4971;SDS011;2501;51.214;6.768;2023-02-28T00:33:48;6.60;;;3.60;;
4971;SDS011;2501;51.214;6.768;2023-02-28T00:36:19;6.97;;;4.03;;
4971;SDS011;2501;51.214;6.768;2023-02-28T00:38:47;5.78;;;4.10;;
4971;SDS011;2501;51.214;6.768;2023-02-28T00:41:16;7.22;;;3.70;;
4971;SDS011;2501;51.214;6.768;2023-02-28T00:43:44;7.17;;;4.40;;
4971;SDS011;2501;51.214;6.768;2023-02-28T00:46:13;6.63;;;4.15;;
4971;SDS011;2501;51.214;6.768;2023-02-28T00:48:41;7.15;;;4.35;;
4971;SDS011;2501;51.214;6.768;2023-02-28T00:51:10;11.13;;;3.92;;
4971;SDS011;2501;51.214;6.768;2023-02-28T00:53:41;7.07;;;3.85;;
4971;SDS011;2501;51.214;6.768;2023-02-28T00:56:09;6.75;;;3.80;;
4971;SDS011;2501;51.214;6.768;2023-02-28T00:58:38;7.22;;;4.25;;
4971;SDS011;2501;51.214;6.768;2023-02-28T01:01:07;7.20;;;4.30;;
4971;SDS011;2501;51.214;6.768;2023-02-28T01:03:36;4.60;;;3.70;;
4971;SDS011;2501;51.214;6.768;2023-02-28T01:06:04;6.93;;;4.50;;
4971;SDS011;2501;51.214;6.768;2023-02-28T01:08:33;6.90;;;4.00;;
4971;SDS011;2501;51.214;6.768;2023-02-28T01:11:09;6.47;;;4.03;;
4971;SDS011;2501;51.214;6.768;2023-02-28T01:13:38;6.43;;;3.87;;
4971;SDS011;2501;51.214;6.768;2023-02-28T01:16:07;7.72;;;4.05;;
4971;SDS011;2501;51.214;6.768;2023-02-28T01:18:36;4.40;;;3.80;;
4971;SDS011;2501;51.214;6.768;2023-02-28T01:21:05;6.73;;;3.93;;
4971;SDS011;2501;51.214;6.768;2023-02-28T01:23:35;6.70;;;4.10;;
4971;SDS011;2501;51.214;6.768;2023-02-28T01:26:04;7.35;;;4.20;;
4971;SDS011;2501;51.214;6.768;2023-02-28T01:28:35;4.47;;;3.60;;
4971;SDS011;2501;51.214;6.768;2023-02-28T01:31:04;4.63;;;4.17;;
4971;SDS011;2501;51.214;6.768;2023-02-28T01:33:33;10.45;;;4.18;;
4971;SDS011;2501;51.214;6.768;2023-02-28T01:36:03;7.10;;;4.35;;
4971;SDS011;2501;51.214;6.768;2023-02-28T01:38:33;4.30;;;3.50;;
4971;SDS011;2501;51.214;6.768;2023-02-28T01:41:02;5.10;;;3.70;;
4971;SDS011;2501;51.214;6.768;2023-02-28T01:43:31;5.15;;;3.90;;
4971;SDS011;2501;51.214;6.768;2023-02-28T01:46:22;7.40;;;3.50;;
4971;SDS011;2501;51.214;6.768;2023-02-28T01:48:51;8.18;;;4.30;;
4971;SDS011;2501;51.214;6.768;2023-02-28T01:51:24;7.70;;;4.67;;
4971;SDS011;2501;51.214;6.768;2023-02-28T01:53:58;4.45;;;4.05;;
4971;SDS011;2501;51.214;6.768;2023-02-28T01:56:30;7.97;;;4.50;;
4971;SDS011;2501;51.214;6.768;2023-02-28T01:59:02;5.55;;;3.50;;
4971;SDS011;2501;51.214;6.768;2023-02-28T02:01:34;3.92;;;3.63;;
4971;SDS011;2501;51.214;6.768;2023-02-28T02:04:07;4.20;;;3.80;;
4971;SDS011;2501;51.214;6.768;2023-02-28T02:06:37;8.82;;;4.50;;
4971;SDS011;2501;51.214;6.768;2023-02-28T02:09:07;11.70;;;3.97;;
4971;SDS011;2501;51.214;6.768;2023-02-28T02:11:36;4.07;;;3.50;;
4971;SDS011;2501;51.214;6.768;2023-02-28T02:14:10;7.90;;;3.95;;
4971;SDS011;2501;51.214;6.768;2023-02-28T02:17:03;5.20;;;3.80;;
4971;SDS011;2501;51.214;6.768;2023-02-28T02:22:59;4.28;;;3.85;;
4971;SDS011;2501;51.214;6.768;2023-02-28T02:25:39;7.55;;;3.67;;
4971;SDS011;2501;51.214;6.768;2023-02-28T02:28:20;4.20;;;3.80;;
4971;SDS011;2501;51.214;6.768;2023-02-28T02:31:05;6.70;;;3.70;;
4971;SDS011;2501;51.214;6.768;2023-02-28T02:34:06;5.28;;;3.70;;
4971;SDS011;2501;51.214;6.768;2023-02-28T02:36:57;5.47;;;4.00;;
4971;SDS011;2501;51.214;6.768;2023-02-28T02:39:34;6.17;;;4.50;;
4971;SDS011;2501;51.214;6.768;2023-02-28T02:42:13;7.77;;;4.80;;
4971;SDS011;2501;51.214;6.768;2023-02-28T02:44:46;8.10;;;4.47;;
4971;SDS011;2501;51.214;6.768;2023-02-28T02:47:19;11.18;;;4.93;;
4971;SDS011;2501;51.214;6.768;2023-02-28T02:49:55;8.77;;;4.37;;
4971;SDS011;2501;51.214;6.768;2023-02-28T02:52:28;6.28;;;4.68;;
4971;SDS011;2501;51.214;6.768;2023-02-28T02:55:02;5.10;;;4.10;;
4971;SDS011;2501;51.214;6.768;2023-02-28T02:57:36;8.77;;;4.82;;
4971;SDS011;2501;51.214;6.768;2023-02-28T03:00:10;7.93;;;4.35;;
4971;SDS011;2501;51.214;6.768;2023-02-28T03:02:40;8.27;;;4.80;;
4971;SDS011;2501;51.214;6.768;2023-02-28T03:05:15;12.15;;;5.40;;
4971;SDS011;2501;51.214;6.768;2023-02-28T03:07:47;5.70;;;4.88;;
4971;SDS011;2501;51.214;6.768;2023-02-28T03:10:33;7.22;;;4.65;;
4971;SDS011;2501;51.214;6.768;2023-02-28T03:13:09;8.10;;;5.40;;
4971;SDS011;2501;51.214;6.768;2023-02-28T03:15:49;8.48;;;5.47;;
4971;SDS011;2501;51.214;6.768;2023-02-28T03:18:27;9.50;;;5.60;;
4971;SDS011;2501;51.214;6.768;2023-02-28T03:21:09;7.80;;;5.00;;
4971;SDS011;2501;51.214;6.768;2023-02-28T03:23:48;9.77;;;5.22;;
4971;SDS011;2501;51.214;6.768;2023-02-28T03:26:26;8.50;;;5.20;;
4971;SDS011;2501;51.214;6.768;2023-02-28T03:28:56;9.90;;;5.27;;
4971;SDS011;2501;51.214;6.768;2023-02-28T03:31:32;8.27;;;5.60;;
4971;SDS011;2501;51.214;6.768;2023-02-28T03:34:06;11.02;;;4.82;;
4971;SDS011;2501;51.214;6.768;2023-02-28T03:36:42;5.88;;;4.60;;
4971;SDS011;2501;51.214;6.768;2023-02-28T03:39:16;8.85;;;5.40;;
4971;SDS011;2501;51.214;6.768;2023-02-28T03:41:49;7.05;;;4.53;;
4971;SDS011;2501;51.214;6.768;2023-02-28T03:44:21;9.70;;;5.07;;
4971;SDS011;2501;51.214;6.768;2023-02-28T03:46:54;12.25;;;4.75;;
4971;SDS011;2501;51.214;6.768;2023-02-28T03:49:30;6.03;;;4.20;;
4971;SDS011;2501;51.214;6.768;2023-02-28T03:52:03;4.40;;;3.90;;
4971;SDS011;2501;51.214;6.768;2023-02-28T03:54:36;7.45;;;4.32;;
4971;SDS011;2501;51.214;6.768;2023-02-28T03:57:10;7.63;;;4.05;;
4971;SDS011;2501;51.214;6.768;2023-02-28T03:59:44;8.40;;;4.10;;
4971;SDS011;2501;51.214;6.768;2023-02-28T04:02:15;5.53;;;4.33;;
4971;SDS011;2501;51.214;6.768;2023-02-28T04:04:44;4.00;;;3.70;;
4971;SDS011;2501;51.214;6.768;2023-02-28T04:07:17;5.38;;;3.45;;
4971;SDS011;2501;51.214;6.768;2023-02-28T04:09:45;6.18;;;3.92;;
4971;SDS011;2501;51.214;6.768;2023-02-28T04:12:14;14.55;;;4.20;;
4971;SDS011;2501;51.214;6.768;2023-02-28T04:14:42;6.47;;;4.00;;
4971;SDS011;2501;51.214;6.768;2023-02-28T04:17:11;5.20;;;4.33;;
4971;SDS011;2501;51.214;6.768;2023-02-28T04:19:39;10.02;;;4.13;;
4971;SDS011;2501;51.214;6.768;2023-02-28T04:22:08;9.35;;;3.60;;
4971;SDS011;2501;51.214;6.768;2023-02-28T04:24:39;7.88;;;4.20;;
4971;SDS011;2501;51.214;6.768;2023-02-28T04:27:09;4.50;;;4.10;;
4971;SDS011;2501;51.214;6.768;2023-02-28T04:29:37;5.85;;;4.15;;
4971;SDS011;2501;51.214;6.768;2023-02-28T04:32:09;4.45;;;3.40;;
4971;SDS011;2501;51.214;6.768;2023-02-28T04:34:38;6.38;;;4.35;;
4971;SDS011;2501;51.214;6.768;2023-02-28T04:37:07;9.95;;;3.65;;
4971;SDS011;2501;51.214;6.768;2023-02-28T04:39:36;5.88;;;4.20;;
4971;SDS011;2501;51.214;6.768;2023-02-28T04:42:07;7.75;;;4.10;;
4971;SDS011;2501;51.214;6.768;2023-02-28T04:44:36;5.53;;;4.00;;
4971;SDS011;2501;51.214;6.768;2023-02-28T04:47:04;9.00;;;3.75;;
4971;SDS011;2501;51.214;6.768;2023-02-28T04:49:33;9.02;;;4.43;;
4971;SDS011;2501;51.214;6.768;2023-02-28T04:52:01;4.95;;;3.70;;
4971;SDS011;2501;51.214;6.768;2023-02-28T04:54:30;5.95;;;3.90;;
4971;SDS011;2501;51.214;6.768;2023-02-28T04:56:58;6.03;;;3.73;;
4971;SDS011;2501;51.214;6.768;2023-02-28T04:59:29;6.30;;;3.60;;
4971;SDS011;2501;51.214;6.768;2023-02-28T05:01:58;3.70;;;3.10;;
4971;SDS011;2501;51.214;6.768;2023-02-28T05:04:31;3.78;;;3.42;;
4971;SDS011;2501;51.214;6.768;2023-02-28T05:07:00;3.72;;;3.33;;
4971;SDS011;2501;51.214;6.768;2023-02-28T05:09:29;4.00;;;3.22;;
4971;SDS011;2501;51.214;6.768;2023-02-28T05:11:58;4.85;;;3.22;;
4971;SDS011;2501;51.214;6.768;2023-02-28T05:14:29;2.95;;;2.75;;
4971;SDS011;2501;51.214;6.768;2023-02-28T05:16:57;5.22;;;3.20;;
4971;SDS011;2501;51.214;6.768;2023-02-28T05:19:25;4.82;;;2.88;;
4971;SDS011;2501;51.214;6.768;2023-02-28T05:21:54;5.50;;;3.17;;
4971;SDS011;2501;51.214;6.768;2023-02-28T05:24:23;3.80;;;2.95;;
4971;SDS011;2501;51.214;6.768;2023-02-28T05:26:52;4.30;;;2.90;;
4971;SDS011;2501;51.214;6.768;2023-02-28T05:29:22;3.70;;;3.20;;
4971;SDS011;2501;51.214;6.768;2023-02-28T05:31:53;3.40;;;3.05;;
4971;SDS011;2501;51.214;6.768;2023-02-28T05:34:21;6.03;;;3.00;;
4971;SDS011;2501;51.214;6.768;2023-02-28T05:36:50;4.13;;;2.80;;
4971;SDS011;2501;51.214;6.768;2023-02-28T05:39:18;4.80;;;2.97;;
4971;SDS011;2501;51.214;6.768;2023-02-28T05:41:47;7.75;;;2.75;;
4971;SDS011;2501;51.214;6.768;2023-02-28T05:44:16;4.72;;;2.70;;
4971;SDS011;2501;51.214;6.768;2023-02-28T05:46:44;5.77;;;3.60;;
4971;SDS011;2501;51.214;6.768;2023-02-28T05:49:15;6.57;;;3.30;;
4971;SDS011;2501;51.214;6.768;2023-02-28T05:51:44;3.55;;;3.20;;
4971;SDS011;2501;51.214;6.768;2023-02-28T05:54:12;7.57;;;3.90;;
4971;SDS011;2501;51.214;6.768;2023-02-28T05:56:41;4.93;;;3.80;;
4971;SDS011;2501;51.214;6.768;2023-02-28T05:59:10;7.22;;;3.53;;
4971;SDS011;2501;51.214;6.768;2023-02-28T06:01:40;6.00;;;3.60;;
4971;SDS011;2501;51.214;6.768;2023-02-28T06:04:16;3.75;;;3.45;;
4971;SDS011;2501;51.214;6.768;2023-02-28T06:06:46;3.92;;;3.53;;
4971;SDS011;2501;51.214;6.768;2023-02-28T06:09:15;3.77;;;3.50;;
4971;SDS011;2501;51.214;6.768;2023-02-28T06:11:45;5.00;;;3.70;;
4971;SDS011;2501;51.214;6.768;2023-02-28T06:14:14;6.77;;;3.43;;
4971;SDS011;2501;51.214;6.768;2023-02-28T06:16:44;5.00;;;3.63;;
4971;SDS011;2501;51.214;6.768;2023-02-28T06:19:15;3.92;;;3.63;;
4971;SDS011;2501;51.214;6.768;2023-02-28T06:21:44;8.60;;;3.70;;
4971;SDS011;2501;51.214;6.768;2023-02-28T06:24:12;6.30;;;3.40;;
4971;SDS011;2501;51.214;6.768;2023-02-28T06:26:41;5.30;;;3.10;;
4971;SDS011;2501;51.214;6.768;2023-02-28T06:29:09;6.63;;;3.53;;
4971;SDS011;2501;51.214;6.768;2023-02-28T06:31:42;7.63;;;3.10;;
4971;SDS011;2501;51.214;6.768;2023-02-28T06:34:10;3.40;;;3.10;;
4971;SDS011;2501;51.214;6.768;2023-02-28T06:36:42;6.82;;;2.83;;
4971;SDS011;2501;51.214;6.768;2023-02-28T06:39:10;3.90;;;3.20;;
4971;SDS011;2501;51.214;6.768;2023-02-28T06:41:39;5.55;;;3.28;;
4971;SDS011;2501;51.214;6.768;2023-02-28T06:44:11;3.70;;;3.03;;
4971;SDS011;2501;51.214;6.768;2023-02-28T06:46:40;3.00;;;2.70;;
4971;SDS011;2501;51.214;6.768;2023-02-28T06:49:09;6.10;;;2.55;;
4971;SDS011;2501;51.214;6.768;2023-02-28T06:51:41;6.35;;;3.28;;
4971;SDS011;2501;51.214;6.768;2023-02-28T06:54:13;4.20;;;2.70;;
4971;SDS011;2501;51.214;6.768;2023-02-28T06:56:41;3.97;;;2.70;;
4971;SDS011;2501;51.214;6.768;2023-02-28T06:59:10;5.20;;;3.20;;
4971;SDS011;2501;51.214;6.768;2023-02-28T07:01:39;5.38;;;3.10;;
4971;SDS011;2501;51.214;6.768;2023-02-28T07:04:08;8.37;;;3.00;;
4971;SDS011;2501;51.214;6.768;2023-02-28T07:06:38;6.40;;;3.20;;
4971;SDS011;2501;51.214;6.768;2023-02-28T07:09:09;3.08;;;2.88;;
4971;SDS011;2501;51.214;6.768;2023-02-28T07:11:39;3.50;;;3.20;;
4971;SDS011;2501;51.214;6.768;2023-02-28T07:14:08;3.40;;;2.80;;
4971;SDS011;2501;51.214;6.768;2023-02-28T07:16:37;2.85;;;2.75;;
4971;SDS011;2501;51.214;6.768;2023-02-28T07:19:05;3.30;;;3.00;;
4971;SDS011;2501;51.214;6.768;2023-02-28T07:21:34;3.20;;;2.60;;
4971;SDS011;2501;51.214;6.768;2023-02-28T07:24:02;4.78;;;2.78;;
4971;SDS011;2501;51.214;6.768;2023-02-28T07:26:34;3.30;;;3.00;;
4971;SDS011;2501;51.214;6.768;2023-02-28T07:29:02;2.70;;;2.50;;
4971;SDS011;2501;51.214;6.768;2023-02-28T07:31:31;2.67;;;2.40;;
4971;SDS011;2501;51.214;6.768;2023-02-28T07:33:59;3.13;;;2.05;;
4971;SDS011;2501;51.214;6.768;2023-02-28T07:36:28;5.03;;;2.50;;
4971;SDS011;2501;51.214;6.768;2023-02-28T07:38:57;4.25;;;2.28;;
4971;SDS011;2501;51.214;6.768;2023-02-28T07:41:26;5.43;;;2.20;;
4971;SDS011;2501;51.214;6.768;2023-02-28T07:44:00;2.70;;;2.50;;
4971;SDS011;2501;51.214;6.768;2023-02-28T07:46:29;2.60;;;2.50;;
4971;SDS011;2501;51.214;6.768;2023-02-28T07:49:00;2.83;;;2.40;;
4971;SDS011;2501;51.214;6.768;2023-02-28T07:51:29;4.90;;;2.70;;
4971;SDS011;2501;51.214;6.768;2023-02-28T07:53:57;3.40;;;2.50;;
4971;SDS011;2501;51.214;6.768;2023-02-28T07:56:26;2.58;;;2.38;;
4971;SDS011;2501;51.214;6.768;2023-02-28T07:58:54;3.00;;;2.67;;
4971;SDS011;2501;51.214;6.768;2023-02-28T08:01:25;4.75;;;2.70;;
4971;SDS011;2501;51.214;6.768;2023-02-28T08:03:54;5.10;;;2.38;;
4971;SDS011;2501;51.214;6.768;2023-02-28T08:06:23;2.83;;;2.60;;
4971;SDS011;2501;51.214;6.768;2023-02-28T08:08:52;10.27;;;3.50;;
4971;SDS011;2501;51.214;6.768;2023-02-28T08:11:21;8.60;;;3.17;;
4971;SDS011;2501;51.214;6.768;2023-02-28T08:13:50;2.45;;;2.25;;
4971;SDS011;2501;51.214;6.768;2023-02-28T08:16:18;2.58;;;2.35;;
4971;SDS011;2501;51.214;6.768;2023-02-28T08:18:49;4.30;;;2.67;;
4971;SDS011;2501;51.214;6.768;2023-02-28T08:21:18;2.97;;;2.50;;
4971;SDS011;2501;51.214;6.768;2023-02-28T08:23:48;3.38;;;3.00;;
4971;SDS011;2501;51.214;6.768;2023-02-28T08:26:18;2.70;;;2.50;;
4971;SDS011;2501;51.214;6.768;2023-02-28T08:28:47;2.72;;;2.53;;
4971;SDS011;2501;51.214;6.768;2023-02-28T08:31:16;2.83;;;2.50;;
4971;SDS011;2501;51.214;6.768;2023-02-28T08:33:45;3.40;;;2.93;;
4971;SDS011;2501;51.214;6.768;2023-02-28T08:36:18;5.90;;;2.70;;
4971;SDS011;2501;51.214;6.768;2023-02-28T08:38:47;4.10;;;2.40;;
4971;SDS011;2501;51.214;6.768;2023-02-28T08:41:15;9.25;;;2.85;;
4971;SDS011;2501;51.214;6.768;2023-02-28T08:43:44;4.15;;;2.83;;
4971;SDS011;2501;51.214;6.768;2023-02-28T08:46:12;3.00;;;2.80;;
4971;SDS011;2501;51.214;6.768;2023-02-28T08:48:42;3.65;;;3.05;;
4971;SDS011;2501;51.214;6.768;2023-02-28T08:51:11;3.57;;;2.40;;
4971;SDS011;2501;51.214;6.768;2023-02-28T08:53:43;2.60;;;2.50;;
4971;SDS011;2501;51.214;6.768;2023-02-28T08:56:15;2.25;;;2.15;;
4971;SDS011;2501;51.214;6.768;2023-02-28T08:58:45;4.28;;;3.08;;
4971;SDS011;2501;51.214;6.768;2023-02-28T09:01:15;6.20;;;2.70;;
4971;SDS011;2501;51.214;6.768;2023-02-28T09:03:45;6.30;;;3.30;;
4971;SDS011;2501;51.214;6.768;2023-02-28T09:06:16;6.38;;;3.40;;
4971;SDS011;2501;51.214;6.768;2023-02-28T09:08:49;5.40;;;2.42;;
4971;SDS011;2501;51.214;6.768;2023-02-28T09:11:18;4.38;;;2.70;;
4971;SDS011;2501;51.214;6.768;2023-02-28T09:13:46;3.47;;;3.17;;
4971;SDS011;2501;51.214;6.768;2023-02-28T09:16:15;3.70;;;2.70;;
4971;SDS011;2501;51.214;6.768;2023-02-28T09:18:44;5.53;;;3.67;;
4971;SDS011;2501;51.214;6.768;2023-02-28T09:21:14;4.68;;;3.10;;
4971;SDS011;2501;51.214;6.768;2023-02-28T09:23:45;4.80;;;3.00;;
4971;SDS011;2501;51.214;6.768;2023-02-28T09:26:17;3.38;;;2.42;;
4971;SDS011;2501;51.214;6.768;2023-02-28T09:28:48;3.10;;;2.40;;
4971;SDS011;2501;51.214;6.768;2023-02-28T09:31:18;3.47;;;2.60;;
4971;SDS011;2501;51.214;6.768;2023-02-28T09:33:49;3.63;;;2.33;;
4971;SDS011;2501;51.214;6.768;2023-02-28T09:36:19;9.03;;;2.53;;
4971;SDS011;2501;51.214;6.768;2023-02-28T09:38:48;7.28;;;2.55;;
4971;SDS011;2501;51.214;6.768;2023-02-28T09:41:21;10.13;;;3.07;;
4971;SDS011;2501;51.214;6.768;2023-02-28T09:43:51;12.48;;;2.72;;
4971;SDS011;2501;51.214;6.768;2023-02-28T09:46:28;3.53;;;2.30;;
4971;SDS011;2501;51.214;6.768;2023-02-28T09:49:02;3.20;;;1.98;;
4971;SDS011;2501;51.214;6.768;2023-02-28T09:51:37;12.13;;;5.20;;
4971;SDS011;2501;51.214;6.768;2023-02-28T09:54:14;5.03;;;2.80;;
4971;SDS011;2501;51.214;6.768;2023-02-28T09:56:49;9.82;;;4.07;;
4971;SDS011;2501;51.214;6.768;2023-02-28T09:59:29;3.80;;;2.30;;
4971;SDS011;2501;51.214;6.768;2023-02-28T10:02:19;5.93;;;3.35;;
4971;SDS011;2501;51.214;6.768;2023-02-28T10:05:07;8.57;;;3.60;;
4971;SDS011;2501;51.214;6.768;2023-02-28T10:07:44;7.80;;;2.47;;
4971;SDS011;2501;51.214;6.768;2023-02-28T10:10:24;4.80;;;2.40;;
4971;SDS011;2501;51.214;6.768;2023-02-28T10:13:00;4.43;;;3.22;;
4971;SDS011;2501;51.214;6.768;2023-02-28T10:15:32;2.95;;;1.95;;
4971;SDS011;2501;51.214;6.768;2023-02-28T10:18:04;2.15;;;1.98;;
4971;SDS011;2501;51.214;6.768;2023-02-28T10:20:38;4.28;;;2.38;;
4971;SDS011;2501;51.214;6.768;2023-02-28T10:23:09;4.57;;;2.20;;
4971;SDS011;2501;51.214;6.768;2023-02-28T10:25:45;7.28;;;2.33;;
4971;SDS011;2501;51.214;6.768;2023-02-28T10:28:24;4.50;;;2.10;;
4971;SDS011;2501;51.214;6.768;2023-02-28T10:30:53;3.33;;;2.33;;
4971;SDS011;2501;51.214;6.768;2023-02-28T10:33:24;11.60;;;3.20;;
4971;SDS011;2501;51.214;6.768;2023-02-28T10:35:55;6.88;;;2.60;;
4971;SDS011;2501;51.214;6.768;2023-02-28T10:38:24;3.63;;;2.45;;
4971;SDS011;2501;51.214;6.768;2023-02-28T10:41:03;5.22;;;2.10;;
4971;SDS011;2501;51.214;6.768;2023-02-28T10:43:36;2.15;;;2.05;;
4971;SDS011;2501;51.214;6.768;2023-02-28T10:46:10;3.10;;;2.50;;
4971;SDS011;2501;51.214;6.768;2023-02-28T10:48:57;4.90;;;2.30;;
4971;SDS011;2501;51.214;6.768;2023-02-28T10:51:34;2.65;;;2.47;;
4971;SDS011;2501;51.214;6.768;2023-02-28T10:54:05;2.75;;;2.10;;
4971;SDS011;2501;51.214;6.768;2023-02-28T10:56:33;3.13;;;2.25;;
4971;SDS011;2501;51.214;6.768;2023-02-28T10:59:20;5.10;;;2.20;;
4971;SDS011;2501;51.214;6.768;2023-02-28T11:01:55;5.68;;;2.40;;
4971;SDS011;2501;51.214;6.768;2023-02-28T11:04:35;3.40;;;2.20;;
4971;SDS011;2501;51.214;6.768;2023-02-28T11:07:06;3.00;;;2.80;;
4971;SDS011;2501;51.214;6.768;2023-02-28T11:09:46;10.63;;;2.60;;
4971;SDS011;2501;51.214;6.768;2023-02-28T11:12:19;2.80;;;2.22;;
4971;SDS011;2501;51.214;6.768;2023-02-28T11:14:53;4.95;;;2.00;;
4971;SDS011;2501;51.214;6.768;2023-02-28T11:17:24;8.70;;;3.20;;
4971;SDS011;2501;51.214;6.768;2023-02-28T11:19:56;7.75;;;2.10;;
4971;SDS011;2501;51.214;6.768;2023-02-28T11:22:29;14.20;;;4.37;;
4971;SDS011;2501;51.214;6.768;2023-02-28T11:25:01;4.90;;;2.25;;
4971;SDS011;2501;51.214;6.768;2023-02-28T11:27:43;2.20;;;2.10;;
4971;SDS011;2501;51.214;6.768;2023-02-28T11:36:11;2.40;;;2.20;;
4971;SDS011;2501;51.214;6.768;2023-02-28T11:38:41;2.10;;;2.00;;
4971;SDS011;2501;51.214;6.768;2023-02-28T11:41:15;2.28;;;2.08;;
4971;SDS011;2501;51.214;6.768;2023-02-28T11:44:06;2.90;;;1.70;;
4971;SDS011;2501;51.214;6.768;2023-02-28T11:46:49;2.10;;;1.90;;
4971;SDS011;2501;51.214;6.768;2023-02-28T11:49:23;3.50;;;2.50;;
4971;SDS011;2501;51.214;6.768;2023-02-28T11:52:01;5.00;;;2.80;;
4971;SDS011;2501;51.214;6.768;2023-02-28T11:57:33;2.55;;;2.30;;
4971;SDS011;2501;51.214;6.768;2023-02-28T12:00:15;3.83;;;2.45;;
4971;SDS011;2501;51.214;6.768;2023-02-28T12:03:01;5.18;;;2.45;;
4971;SDS011;2501;51.214;6.768;2023-02-28T12:05:43;5.63;;;2.60;;
4971;SDS011;2501;51.214;6.768;2023-02-28T12:08:21;9.20;;;2.50;;
4971;SDS011;2501;51.214;6.768;2023-02-28T12:10:59;5.15;;;2.28;;
4971;SDS011;2501;51.214;6.768;2023-02-28T12:13:36;2.40;;;2.20;;
4971;SDS011;2501;51.214;6.768;2023-02-28T12:16:18;3.60;;;2.13;;
4971;SDS011;2501;51.214;6.768;2023-02-28T12:19:13;2.67;;;2.58;;
4971;SDS011;2501;51.214;6.768;2023-02-28T12:22:01;2.50;;;2.30;;
4971;SDS011;2501;51.214;6.768;2023-02-28T12:27:49;3.00;;;2.00;;
4971;SDS011;2501;51.214;6.768;2023-02-28T12:30:21;5.07;;;2.75;;
4971;SDS011;2501;51.214;6.768;2023-02-28T12:32:54;3.47;;;2.75;;
4971;SDS011;2501;51.214;6.768;2023-02-28T12:35:31;5.65;;;2.78;;
4971;SDS011;2501;51.214;6.768;2023-02-28T12:38:02;8.18;;;3.20;;
4971;SDS011;2501;51.214;6.768;2023-02-28T12:40:40;2.53;;;2.33;;
4971;SDS011;2501;51.214;6.768;2023-02-28T12:43:12;12.30;;;3.63;;
4971;SDS011;2501;51.214;6.768;2023-02-28T12:45:45;21.57;;;4.40;;
4971;SDS011;2501;51.214;6.768;2023-02-28T12:48:19;49.53;;;5.10;;
4971;SDS011;2501;51.214;6.768;2023-02-28T12:50:56;3.65;;;3.20;;
4971;SDS011;2501;51.214;6.768;2023-02-28T12:53:26;21.37;;;5.20;;
4971;SDS011;2501;51.214;6.768;2023-02-28T12:56:04;3.47;;;2.70;;
4971;SDS011;2501;51.214;6.768;2023-02-28T12:58:42;5.97;;;2.80;;
4971;SDS011;2501;51.214;6.768;2023-02-28T13:01:30;8.48;;;2.83;;
4971;SDS011;2501;51.214;6.768;2023-02-28T13:04:21;13.55;;;3.40;;
4971;SDS011;2501;51.214;6.768;2023-02-28T13:07:14;3.15;;;2.95;;
4971;SDS011;2501;51.214;6.768;2023-02-28T13:10:02;2.60;;;2.40;;
4971;SDS011;2501;51.214;6.768;2023-02-28T13:12:33;2.97;;;2.78;;
4971;SDS011;2501;51.214;6.768;2023-02-28T13:15:04;3.10;;;2.80;;
4971;SDS011;2501;51.214;6.768;2023-02-28T13:17:40;2.83;;;2.63;;
4971;SDS011;2501;51.214;6.768;2023-02-28T13:20:14;5.88;;;3.30;;
4971;SDS011;2501;51.214;6.768;2023-02-28T13:22:48;5.53;;;3.35;;
4971;SDS011;2501;51.214;6.768;2023-02-28T13:34:33;9.98;;;2.60;;
4971;SDS011;2501;51.214;6.768;2023-02-28T13:40:24;2.97;;;2.67;;
4971;SDS011;2501;51.214;6.768;2023-02-28T13:43:02;7.67;;;2.90;;
4971;SDS011;2501;51.214;6.768;2023-02-28T13:45:30;4.55;;;3.40;;
4971;SDS011;2501;51.214;6.768;2023-02-28T13:48:04;3.90;;;2.75;;
4971;SDS011;2501;51.214;6.768;2023-02-28T13:50:42;5.10;;;3.17;;
4971;SDS011;2501;51.214;6.768;2023-02-28T13:53:28;2.75;;;2.55;;
4971;SDS011;2501;51.214;6.768;2023-02-28T13:56:17;6.93;;;3.10;;
4971;SDS011;2501;51.214;6.768;2023-02-28T13:58:53;4.53;;;3.10;;
4971;SDS011;2501;51.214;6.768;2023-02-28T14:01:36;3.60;;;2.95;;
4971;SDS011;2501;51.214;6.768;2023-02-28T14:07:18;4.93;;;3.60;;
4971;SDS011;2501;51.214;6.768;2023-02-28T14:09:54;16.20;;;3.90;;
4971;SDS011;2501;51.214;6.768;2023-02-28T14:18:27;3.55;;;3.00;;
4971;SDS011;2501;51.214;6.768;2023-02-28T14:21:01;3.72;;;3.00;;
4971;SDS011;2501;51.214;6.768;2023-02-28T14:23:43;8.23;;;3.10;;
4971;SDS011;2501;51.214;6.768;2023-02-28T14:26:35;3.70;;;3.30;;
4971;SDS011;2501;51.214;6.768;2023-02-28T14:29:24;9.50;;;3.10;;
4971;SDS011;2501;51.214;6.768;2023-02-28T14:32:06;3.00;;;2.80;;
4971;SDS011;2501;51.214;6.768;2023-02-28T14:34:42;3.33;;;3.05;;
4971;SDS011;2501;51.214;6.768;2023-02-28T14:37:19;3.85;;;3.20;;
4971;SDS011;2501;51.214;6.768;2023-02-28T14:39:51;3.40;;;2.90;;
4971;SDS011;2501;51.214;6.768;2023-02-28T14:42:25;3.60;;;2.63;;
4971;SDS011;2501;51.214;6.768;2023-02-28T14:44:58;3.78;;;3.10;;
4971;SDS011;2501;51.214;6.768;2023-02-28T14:47:28;3.40;;;3.03;;
4971;SDS011;2501;51.214;6.768;2023-02-28T14:49:59;3.70;;;3.30;;
4971;SDS011;2501;51.214;6.768;2023-02-28T14:52:30;3.60;;;3.30;;
4971;SDS011;2501;51.214;6.768;2023-02-28T14:55:01;4.13;;;3.30;;
4971;SDS011;2501;51.214;6.768;2023-02-28T14:57:39;3.22;;;2.92;;
4971;SDS011;2501;51.214;6.768;2023-02-28T15:00:14;7.05;;;4.43;;
4971;SDS011;2501;51.214;6.768;2023-02-28T15:02:44;3.97;;;3.40;;
4971;SDS011;2501;51.214;6.768;2023-02-28T15:05:19;5.73;;;3.50;;
4971;SDS011;2501;51.214;6.768;2023-02-28T15:08:00;5.93;;;3.10;;
4971;SDS011;2501;51.214;6.768;2023-02-28T15:10:31;5.97;;;2.90;;
4971;SDS011;2501;51.214;6.768;2023-02-28T15:13:02;3.30;;;3.00;;
4971;SDS011;2501;51.214;6.768;2023-02-28T15:15:40;3.92;;;3.17;;
4971;SDS011;2501;51.214;6.768;2023-02-28T15:18:13;6.72;;;3.50;;
4971;SDS011;2501;51.214;6.768;2023-02-28T15:20:49;13.03;;;3.33;;
4971;SDS011;2501;51.214;6.768;2023-02-28T15:23:19;3.85;;;3.33;;
4971;SDS011;2501;51.214;6.768;2023-02-28T15:25:49;7.88;;;3.10;;
4971;SDS011;2501;51.214;6.768;2023-02-28T15:28:20;5.50;;;3.45;;
4971;SDS011;2501;51.214;6.768;2023-02-28T15:30:55;4.03;;;3.53;;
4971;SDS011;2501;51.214;6.768;2023-02-28T15:33:26;4.90;;;3.40;;
4971;SDS011;2501;51.214;6.768;2023-02-28T15:36:06;6.50;;;3.70;;
4971;SDS011;2501;51.214;6.768;2023-02-28T15:38:40;4.85;;;3.50;;
4971;SDS011;2501;51.214;6.768;2023-02-28T15:41:21;10.57;;;3.20;;
4971;SDS011;2501;51.214;6.768;2023-02-28T15:46:53;3.50;;;3.20;;
4971;SDS011;2501;51.214;6.768;2023-02-28T15:49:24;3.90;;;3.60;;
4971;SDS011;2501;51.214;6.768;2023-02-28T15:51:53;4.00;;;3.70;;
4971;SDS011;2501;51.214;6.768;2023-02-28T15:54:27;5.07;;;3.50;;
4971;SDS011;2501;51.214;6.768;2023-02-28T15:56:59;6.35;;;5.20;;
4971;SDS011;2501;51.214;6.768;2023-02-28T15:59:31;3.80;;;3.50;;
4971;SDS011;2501;51.214;6.768;2023-02-28T16:02:15;3.70;;;3.50;;
4971;SDS011;2501;51.214;6.768;2023-02-28T16:04:59;4.20;;;3.40;;
4971;SDS011;2501;51.214;6.768;2023-02-28T16:07:30;3.72;;;3.33;;
4971;SDS011;2501;51.214;6.768;2023-02-28T16:09:58;3.95;;;3.00;;
4971;SDS011;2501;51.214;6.768;2023-02-28T16:12:28;4.90;;;3.30;;
4971;SDS011;2501;51.214;6.768;2023-02-28T16:14:58;3.40;;;3.10;;
4971;SDS011;2501;51.214;6.768;2023-02-28T16:17:33;7.20;;;4.15;;
4971;SDS011;2501;51.214;6.768;2023-02-28T16:20:11;3.60;;;3.40;;
4971;SDS011;2501;51.214;6.768;2023-02-28T16:22:41;4.35;;;3.95;;
4971;SDS011;2501;51.214;6.768;2023-02-28T16:25:11;3.70;;;3.30;;
4971;SDS011;2501;51.214;6.768;2023-02-28T16:27:41;6.07;;;3.67;;
4971;SDS011;2501;51.214;6.768;2023-02-28T16:32:50;6.30;;;3.92;;